sensor_id;sensor_type;location;lat;lon;timestamp;P1;durP1;ratioP1;P2;durP2;ratioP2
1308;SDS011;647;48.840;9.314;2022-07-05T00:01:34;60.10;;;4.10;;
1308;SDS011;647;48.840;9.314;2022-07-05T00:04:10;60.67;;;4.33;;
1308;SDS011;647;48.840;9.314;2022-07-05T00:06:37;60.07;;;4.13;;
1308;SDS011;647;48.840;9.314;2022-07-05T00:09:25;60.30;;;4.13;;
1308;SDS011;647;48.840;9.314;2022-07-05T00:11:55;61.20;;;4.50;;
1308;SDS011;647;48.840;9.314;2022-07-05T00:14:24;60.47;;;4.10;;
1308;SDS011;647;48.840;9.314;2022-07-05T00:16:55;59.93;;;4.60;;
1308;SDS011;647;48.840;9.314;2022-07-05T00:19:23;60.47;;;4.40;;
1308;SDS011;647;48.840;9.314;2022-07-05T00:21:52;60.60;;;4.77;;
1308;SDS011;647;48.840;9.314;2022-07-05T00:24:19;60.37;;;4.73;;
1308;SDS011;647;48.840;9.314;2022-07-05T00:26:47;60.50;;;4.50;;
1308;SDS011;647;48.840;9.314;2022-07-05T00:29:14;61.40;;;4.50;;
1308;SDS011;647;48.840;9.314;2022-07-05T00:31:43;59.77;;;4.13;;
1308;SDS011;647;48.840;9.314;2022-07-05T00:34:14;60.73;;;4.90;;
1308;SDS011;647;48.840;9.314;2022-07-05T00:36:42;61.93;;;5.10;;
1308;SDS011;647;48.840;9.314;2022-07-05T00:39:11;60.60;;;4.33;;
1308;SDS011;647;48.840;9.314;2022-07-05T00:41:38;60.47;;;4.30;;
1308;SDS011;647;48.840;9.314;2022-07-05T00:44:07;60.20;;;4.10;;
1308;SDS011;647;48.840;9.314;2022-07-05T00:46:34;60.50;;;4.33;;
1308;SDS011;647;48.840;9.314;2022-07-05T00:49:02;60.10;;;4.40;;
1308;SDS011;647;48.840;9.314;2022-07-05T00:51:36;60.47;;;4.37;;
1308;SDS011;647;48.840;9.314;2022-07-05T00:54:05;60.13;;;4.63;;
1308;SDS011;647;48.840;9.314;2022-07-05T00:56:32;60.87;;;4.73;;
1308;SDS011;647;48.840;9.314;2022-07-05T00:59:00;60.10;;;4.67;;
1308;SDS011;647;48.840;9.314;2022-07-05T01:01:27;60.60;;;4.57;;
1308;SDS011;647;48.840;9.314;2022-07-05T01:03:55;61.43;;;5.00;;
1308;SDS011;647;48.840;9.314;2022-07-05T01:06:23;59.70;;;4.37;;
1308;SDS011;647;48.840;9.314;2022-07-05T01:08:51;60.47;;;4.50;;
1308;SDS011;647;48.840;9.314;2022-07-05T01:11:19;60.70;;;4.60;;
1308;SDS011;647;48.840;9.314;2022-07-05T01:13:46;60.70;;;4.47;;
1308;SDS011;647;48.840;9.314;2022-07-05T01:16:13;63.87;;;5.13;;
1308;SDS011;647;48.840;9.314;2022-07-05T01:18:41;61.07;;;4.80;;
1308;SDS011;647;48.840;9.314;2022-07-05T01:21:10;60.30;;;4.00;;
1308;SDS011;647;48.840;9.314;2022-07-05T01:23:40;60.00;;;4.87;;
1308;SDS011;647;48.840;9.314;2022-07-05T01:26:08;60.27;;;4.70;;
1308;SDS011;647;48.840;9.314;2022-07-05T01:28:36;60.57;;;4.73;;
1308;SDS011;647;48.840;9.314;2022-07-05T01:31:03;59.70;;;4.30;;
1308;SDS011;647;48.840;9.314;2022-07-05T01:33:30;59.60;;;4.00;;
1308;SDS011;647;48.840;9.314;2022-07-05T01:36:03;61.10;;;4.30;;
1308;SDS011;647;48.840;9.314;2022-07-05T01:38:32;60.90;;;4.40;;
1308;SDS011;647;48.840;9.314;2022-07-05T01:41:01;61.70;;;4.77;;
1308;SDS011;647;48.840;9.314;2022-07-05T01:43:29;61.87;;;4.77;;
1308;SDS011;647;48.840;9.314;2022-07-05T01:45:56;59.77;;;4.40;;
1308;SDS011;647;48.840;9.314;2022-07-05T01:48:25;62.77;;;4.17;;
1308;SDS011;647;48.840;9.314;2022-07-05T01:50:54;60.33;;;4.33;;
1308;SDS011;647;48.840;9.314;2022-07-05T01:53:22;61.17;;;4.90;;
1308;SDS011;647;48.840;9.314;2022-07-05T01:55:49;60.57;;;5.23;;
1308;SDS011;647;48.840;9.314;2022-07-05T01:58:19;60.80;;;4.73;;
1308;SDS011;647;48.840;9.314;2022-07-05T02:00:46;60.10;;;4.50;;
1308;SDS011;647;48.840;9.314;2022-07-05T02:03:14;60.87;;;5.23;;
1308;SDS011;647;48.840;9.314;2022-07-05T02:05:42;60.27;;;4.67;;
1308;SDS011;647;48.840;9.314;2022-07-05T02:08:10;60.33;;;4.47;;
1308;SDS011;647;48.840;9.314;2022-07-05T02:10:38;60.73;;;4.80;;
1308;SDS011;647;48.840;9.314;2022-07-05T02:13:06;63.20;;;5.00;;
1308;SDS011;647;48.840;9.314;2022-07-05T02:15:36;60.00;;;4.17;;
1308;SDS011;647;48.840;9.314;2022-07-05T02:18:05;63.10;;;5.03;;
1308;SDS011;647;48.840;9.314;2022-07-05T02:20:33;67.13;;;4.40;;
1308;SDS011;647;48.840;9.314;2022-07-05T02:23:01;61.90;;;4.97;;
1308;SDS011;647;48.840;9.314;2022-07-05T02:25:28;61.03;;;5.30;;
1308;SDS011;647;48.840;9.314;2022-07-05T02:27:56;60.57;;;5.07;;
1308;SDS011;647;48.840;9.314;2022-07-05T02:30:23;62.30;;;4.57;;
1308;SDS011;647;48.840;9.314;2022-07-05T02:32:52;63.40;;;4.53;;
1308;SDS011;647;48.840;9.314;2022-07-05T02:35:19;60.20;;;4.40;;
1308;SDS011;647;48.840;9.314;2022-07-05T02:37:47;60.17;;;4.23;;
1308;SDS011;647;48.840;9.314;2022-07-05T02:40:14;60.00;;;4.30;;
1308;SDS011;647;48.840;9.314;2022-07-05T02:42:41;61.40;;;4.87;;
1308;SDS011;647;48.840;9.314;2022-07-05T02:45:09;61.13;;;4.80;;
1308;SDS011;647;48.840;9.314;2022-07-05T02:47:36;61.67;;;4.87;;
1308;SDS011;647;48.840;9.314;2022-07-05T02:50:05;60.50;;;4.43;;
1308;SDS011;647;48.840;9.314;2022-07-05T02:52:33;61.30;;;4.77;;
1308;SDS011;647;48.840;9.314;2022-07-05T02:55:00;61.37;;;4.40;;
1308;SDS011;647;48.840;9.314;2022-07-05T02:57:30;63.13;;;4.67;;
1308;SDS011;647;48.840;9.314;2022-07-05T02:59:57;60.50;;;4.37;;
1308;SDS011;647;48.840;9.314;2022-07-05T03:02:24;61.07;;;4.50;;
1308;SDS011;647;48.840;9.314;2022-07-05T03:04:52;60.40;;;4.77;;
1308;SDS011;647;48.840;9.314;2022-07-05T03:07:21;61.67;;;5.63;;
1308;SDS011;647;48.840;9.314;2022-07-05T03:09:48;60.80;;;4.87;;
1308;SDS011;647;48.840;9.314;2022-07-05T03:12:15;60.80;;;4.40;;
1308;SDS011;647;48.840;9.314;2022-07-05T03:14:42;60.43;;;4.47;;
1308;SDS011;647;48.840;9.314;2022-07-05T03:17:13;60.57;;;4.50;;
1308;SDS011;647;48.840;9.314;2022-07-05T03:19:40;60.47;;;4.73;;
1308;SDS011;647;48.840;9.314;2022-07-05T03:22:07;60.73;;;4.80;;
1308;SDS011;647;48.840;9.314;2022-07-05T03:24:38;61.00;;;4.80;;
1308;SDS011;647;48.840;9.314;2022-07-05T03:27:05;60.50;;;4.53;;
1308;SDS011;647;48.840;9.314;2022-07-05T03:29:34;60.50;;;4.73;;
1308;SDS011;647;48.840;9.314;2022-07-05T03:32:01;62.77;;;4.80;;
1308;SDS011;647;48.840;9.314;2022-07-05T03:34:28;60.40;;;4.57;;
1308;SDS011;647;48.840;9.314;2022-07-05T03:36:57;60.33;;;4.97;;
1308;SDS011;647;48.840;9.314;2022-07-05T03:39:24;60.90;;;4.90;;
1308;SDS011;647;48.840;9.314;2022-07-05T03:41:54;60.80;;;4.70;;
1308;SDS011;647;48.840;9.314;2022-07-05T03:44:21;60.70;;;4.50;;
1308;SDS011;647;48.840;9.314;2022-07-05T03:46:49;60.87;;;4.80;;
1308;SDS011;647;48.840;9.314;2022-07-05T03:49:17;60.50;;;4.40;;
1308;SDS011;647;48.840;9.314;2022-07-05T03:51:44;61.07;;;5.20;;
1308;SDS011;647;48.840;9.314;2022-07-05T03:54:11;61.40;;;5.10;;
1308;SDS011;647;48.840;9.314;2022-07-05T03:56:39;63.47;;;5.90;;
1308;SDS011;647;48.840;9.314;2022-07-05T03:59:08;61.60;;;4.77;;
1308;SDS011;647;48.840;9.314;2022-07-05T04:01:35;60.67;;;4.80;;
1308;SDS011;647;48.840;9.314;2022-07-05T04:04:03;60.30;;;4.40;;
1308;SDS011;647;48.840;9.314;2022-07-05T04:06:31;59.90;;;4.60;;
1308;SDS011;647;48.840;9.314;2022-07-05T04:08:58;61.87;;;4.57;;
1308;SDS011;647;48.840;9.314;2022-07-05T04:11:25;60.50;;;4.93;;
1308;SDS011;647;48.840;9.314;2022-07-05T04:13:54;62.70;;;5.47;;
1308;SDS011;647;48.840;9.314;2022-07-05T04:16:22;61.67;;;5.00;;
1308;SDS011;647;48.840;9.314;2022-07-05T04:18:52;60.87;;;4.77;;
1308;SDS011;647;48.840;9.314;2022-07-05T04:21:19;60.87;;;5.10;;
1308;SDS011;647;48.840;9.314;2022-07-05T04:23:47;60.30;;;5.07;;
1308;SDS011;647;48.840;9.314;2022-07-05T04:26:14;61.30;;;4.60;;
1308;SDS011;647;48.840;9.314;2022-07-05T04:28:41;60.20;;;4.90;;
1308;SDS011;647;48.840;9.314;2022-07-05T04:31:08;60.70;;;5.00;;
1308;SDS011;647;48.840;9.314;2022-07-05T04:33:37;60.47;;;4.90;;
1308;SDS011;647;48.840;9.314;2022-07-05T04:36:05;60.70;;;4.60;;
1308;SDS011;647;48.840;9.314;2022-07-05T04:38:32;61.23;;;4.97;;
1308;SDS011;647;48.840;9.314;2022-07-05T04:40:59;61.10;;;4.63;;
1308;SDS011;647;48.840;9.314;2022-07-05T04:43:26;60.77;;;4.70;;
1308;SDS011;647;48.840;9.314;2022-07-05T04:45:54;61.20;;;5.00;;
1308;SDS011;647;48.840;9.314;2022-07-05T04:48:21;60.07;;;4.53;;
1308;SDS011;647;48.840;9.314;2022-07-05T04:50:52;59.90;;;4.30;;
1308;SDS011;647;48.840;9.314;2022-07-05T04:53:19;61.07;;;4.77;;
1308;SDS011;647;48.840;9.314;2022-07-05T04:55:46;60.87;;;5.00;;
1308;SDS011;647;48.840;9.314;2022-07-05T04:58:14;63.03;;;4.87;;
1308;SDS011;647;48.840;9.314;2022-07-05T05:00:41;60.77;;;4.37;;
1308;SDS011;647;48.840;9.314;2022-07-05T05:03:08;60.57;;;4.97;;
1308;SDS011;647;48.840;9.314;2022-07-05T05:05:37;60.77;;;4.93;;
1308;SDS011;647;48.840;9.314;2022-07-05T05:08:05;60.30;;;4.70;;
1308;SDS011;647;48.840;9.314;2022-07-05T05:10:33;61.60;;;4.87;;
1308;SDS011;647;48.840;9.314;2022-07-05T05:13:01;60.80;;;5.20;;
1308;SDS011;647;48.840;9.314;2022-07-05T05:15:28;60.10;;;4.50;;
1308;SDS011;647;48.840;9.314;2022-07-05T05:17:56;61.67;;;5.10;;
1308;SDS011;647;48.840;9.314;2022-07-05T05:20:23;60.40;;;4.90;;
1308;SDS011;647;48.840;9.314;2022-07-05T05:22:50;60.60;;;5.00;;
1308;SDS011;647;48.840;9.314;2022-07-05T05:25:19;59.80;;;4.20;;
1308;SDS011;647;48.840;9.314;2022-07-05T05:27:47;59.90;;;4.40;;
1308;SDS011;647;48.840;9.314;2022-07-05T05:30:18;59.50;;;4.10;;
1308;SDS011;647;48.840;9.314;2022-07-05T05:32:45;59.80;;;4.30;;
1308;SDS011;647;48.840;9.314;2022-07-05T05:35:13;60.40;;;4.97;;
1308;SDS011;647;48.840;9.314;2022-07-05T05:37:47;60.20;;;4.53;;
1308;SDS011;647;48.840;9.314;2022-07-05T05:40:15;60.30;;;4.40;;
1308;SDS011;647;48.840;9.314;2022-07-05T05:42:46;61.30;;;4.97;;
1308;SDS011;647;48.840;9.314;2022-07-05T05:45:13;60.90;;;5.20;;
1308;SDS011;647;48.840;9.314;2022-07-05T05:47:45;59.70;;;5.10;;
1308;SDS011;647;48.840;9.314;2022-07-05T05:50:13;59.53;;;4.10;;
1308;SDS011;647;48.840;9.314;2022-07-05T05:52:42;60.47;;;4.70;;
1308;SDS011;647;48.840;9.314;2022-07-05T05:55:10;60.27;;;4.50;;
1308;SDS011;647;48.840;9.314;2022-07-05T05:57:38;60.20;;;5.00;;
1308;SDS011;647;48.840;9.314;2022-07-05T06:00:08;59.80;;;4.83;;
1308;SDS011;647;48.840;9.314;2022-07-05T06:02:36;59.57;;;4.27;;
1308;SDS011;647;48.840;9.314;2022-07-05T06:05:03;61.70;;;5.67;;
1308;SDS011;647;48.840;9.314;2022-07-05T06:07:31;60.07;;;4.53;;
1308;SDS011;647;48.840;9.314;2022-07-05T06:09:59;62.93;;;4.80;;
1308;SDS011;647;48.840;9.314;2022-07-05T06:12:29;59.93;;;4.40;;
1308;SDS011;647;48.840;9.314;2022-07-05T06:14:56;60.10;;;4.10;;
1308;SDS011;647;48.840;9.314;2022-07-05T06:17:30;60.47;;;4.43;;
1308;SDS011;647;48.840;9.314;2022-07-05T06:20:03;61.40;;;4.50;;
1308;SDS011;647;48.840;9.314;2022-07-05T06:22:30;63.97;;;4.00;;
1308;SDS011;647;48.840;9.314;2022-07-05T06:24:58;59.30;;;3.67;;
1308;SDS011;647;48.840;9.314;2022-07-05T06:27:26;59.50;;;4.07;;
1308;SDS011;647;48.840;9.314;2022-07-05T06:29:53;59.87;;;3.50;;
1308;SDS011;647;48.840;9.314;2022-07-05T06:32:21;60.37;;;3.53;;
1308;SDS011;647;48.840;9.314;2022-07-05T06:34:49;59.40;;;3.53;;
1308;SDS011;647;48.840;9.314;2022-07-05T06:37:17;59.60;;;4.23;;
1308;SDS011;647;48.840;9.314;2022-07-05T06:39:44;59.37;;;3.67;;
1308;SDS011;647;48.840;9.314;2022-07-05T06:42:12;59.37;;;3.77;;
1308;SDS011;647;48.840;9.314;2022-07-05T06:44:39;59.80;;;3.20;;
1308;SDS011;647;48.840;9.314;2022-07-05T06:47:07;64.70;;;3.57;;
1308;SDS011;647;48.840;9.314;2022-07-05T06:49:34;59.13;;;3.20;;
1308;SDS011;647;48.840;9.314;2022-07-05T06:52:03;60.07;;;3.53;;
1308;SDS011;647;48.840;9.314;2022-07-05T06:54:31;58.90;;;3.00;;
1308;SDS011;647;48.840;9.314;2022-07-05T06:56:58;59.50;;;3.60;;
1308;SDS011;647;48.840;9.314;2022-07-05T06:59:27;59.27;;;3.30;;
1308;SDS011;647;48.840;9.314;2022-07-05T07:01:54;59.90;;;3.50;;
1308;SDS011;647;48.840;9.314;2022-07-05T07:04:21;59.37;;;3.17;;
1308;SDS011;647;48.840;9.314;2022-07-05T07:06:49;59.17;;;3.43;;
1308;SDS011;647;48.840;9.314;2022-07-05T07:09:17;58.87;;;3.50;;
1308;SDS011;647;48.840;9.314;2022-07-05T07:11:45;60.67;;;3.87;;
1308;SDS011;647;48.840;9.314;2022-07-05T07:14:13;60.40;;;3.50;;
1308;SDS011;647;48.840;9.314;2022-07-05T07:16:41;58.57;;;3.27;;
1308;SDS011;647;48.840;9.314;2022-07-05T07:19:08;60.80;;;3.70;;
1308;SDS011;647;48.840;9.314;2022-07-05T07:21:37;60.87;;;3.30;;
1308;SDS011;647;48.840;9.314;2022-07-05T07:24:06;58.97;;;3.20;;
1308;SDS011;647;48.840;9.314;2022-07-05T07:26:36;59.00;;;3.47;;
1308;SDS011;647;48.840;9.314;2022-07-05T07:29:21;61.77;;;3.50;;
1308;SDS011;647;48.840;9.314;2022-07-05T07:31:48;58.97;;;3.40;;
1308;SDS011;647;48.840;9.314;2022-07-05T07:34:17;59.37;;;3.27;;
1308;SDS011;647;48.840;9.314;2022-07-05T07:36:44;59.70;;;3.27;;
1308;SDS011;647;48.840;9.314;2022-07-05T07:39:20;58.93;;;3.47;;
1308;SDS011;647;48.840;9.314;2022-07-05T07:41:50;59.07;;;3.10;;
1308;SDS011;647;48.840;9.314;2022-07-05T07:44:17;60.20;;;3.43;;
1308;SDS011;647;48.840;9.314;2022-07-05T07:46:46;59.00;;;3.10;;
1308;SDS011;647;48.840;9.314;2022-07-05T07:49:13;59.33;;;2.90;;
1308;SDS011;647;48.840;9.314;2022-07-05T07:51:40;58.83;;;3.00;;
1308;SDS011;647;48.840;9.314;2022-07-05T07:54:11;61.00;;;4.00;;
1308;SDS011;647;48.840;9.314;2022-07-05T07:56:38;59.57;;;3.10;;
1308;SDS011;647;48.840;9.314;2022-07-05T07:59:06;60.97;;;3.87;;
1308;SDS011;647;48.840;9.314;2022-07-05T08:01:34;58.90;;;3.10;;
1308;SDS011;647;48.840;9.314;2022-07-05T08:04:04;59.73;;;3.27;;
1308;SDS011;647;48.840;9.314;2022-07-05T08:06:31;59.87;;;3.40;;
1308;SDS011;647;48.840;9.314;2022-07-05T08:08:59;59.00;;;2.90;;
1308;SDS011;647;48.840;9.314;2022-07-05T08:11:26;61.43;;;3.37;;
1308;SDS011;647;48.840;9.314;2022-07-05T08:13:53;58.80;;;3.13;;
1308;SDS011;647;48.840;9.314;2022-07-05T08:16:22;58.63;;;3.47;;
1308;SDS011;647;48.840;9.314;2022-07-05T08:18:49;59.67;;;3.50;;
1308;SDS011;647;48.840;9.314;2022-07-05T08:21:34;58.90;;;3.30;;
1308;SDS011;647;48.840;9.314;2022-07-05T08:24:04;60.17;;;3.00;;
1308;SDS011;647;48.840;9.314;2022-07-05T08:26:31;59.00;;;3.17;;
1308;SDS011;647;48.840;9.314;2022-07-05T08:28:59;60.07;;;3.13;;
1308;SDS011;647;48.840;9.314;2022-07-05T08:31:28;59.87;;;3.83;;
1308;SDS011;647;48.840;9.314;2022-07-05T08:33:56;58.60;;;3.23;;
1308;SDS011;647;48.840;9.314;2022-07-05T08:36:24;59.93;;;3.60;;
1308;SDS011;647;48.840;9.314;2022-07-05T08:38:52;58.97;;;2.70;;
1308;SDS011;647;48.840;9.314;2022-07-05T08:41:21;61.90;;;3.30;;
1308;SDS011;647;48.840;9.314;2022-07-05T08:43:51;59.00;;;2.97;;
1308;SDS011;647;48.840;9.314;2022-07-05T08:46:18;63.10;;;3.90;;
1308;SDS011;647;48.840;9.314;2022-07-05T08:48:49;59.40;;;3.23;;
1308;SDS011;647;48.840;9.314;2022-07-05T08:51:17;59.63;;;3.30;;
1308;SDS011;647;48.840;9.314;2022-07-05T08:53:46;58.60;;;3.00;;
1308;SDS011;647;48.840;9.314;2022-07-05T08:56:13;59.27;;;3.20;;
1308;SDS011;647;48.840;9.314;2022-07-05T08:58:43;59.13;;;2.80;;
1308;SDS011;647;48.840;9.314;2022-07-05T09:01:14;60.40;;;3.03;;
1308;SDS011;647;48.840;9.314;2022-07-05T09:03:43;58.47;;;2.97;;
1308;SDS011;647;48.840;9.314;2022-07-05T09:06:12;58.80;;;3.10;;
1308;SDS011;647;48.840;9.314;2022-07-05T09:08:41;61.27;;;2.90;;
1308;SDS011;647;48.840;9.314;2022-07-05T09:11:10;59.20;;;3.20;;
1308;SDS011;647;48.840;9.314;2022-07-05T09:13:39;60.00;;;2.93;;
1308;SDS011;647;48.840;9.314;2022-07-05T09:16:07;58.70;;;2.90;;
1308;SDS011;647;48.840;9.314;2022-07-05T09:18:39;58.17;;;2.73;;
1308;SDS011;647;48.840;9.314;2022-07-05T09:21:18;62.20;;;2.70;;
1308;SDS011;647;48.840;9.314;2022-07-05T09:23:53;58.47;;;2.40;;
1308;SDS011;647;48.840;9.314;2022-07-05T09:26:32;60.40;;;3.07;;
1308;SDS011;647;48.840;9.314;2022-07-05T09:28:59;62.00;;;3.17;;
1308;SDS011;647;48.840;9.314;2022-07-05T09:31:29;58.60;;;2.70;;
1308;SDS011;647;48.840;9.314;2022-07-05T09:34:06;58.70;;;3.00;;
1308;SDS011;647;48.840;9.314;2022-07-05T09:39:34;58.60;;;2.70;;
1308;SDS011;647;48.840;9.314;2022-07-05T09:42:08;58.40;;;2.80;;
1308;SDS011;647;48.840;9.314;2022-07-05T09:44:37;58.30;;;2.40;;
1308;SDS011;647;48.840;9.314;2022-07-05T09:47:08;61.97;;;2.93;;
1308;SDS011;647;48.840;9.314;2022-07-05T09:49:37;61.73;;;2.87;;
1308;SDS011;647;48.840;9.314;2022-07-05T09:52:04;59.20;;;2.60;;
1308;SDS011;647;48.840;9.314;2022-07-05T09:54:33;60.07;;;3.13;;
1308;SDS011;647;48.840;9.314;2022-07-05T09:57:01;58.27;;;2.57;;
1308;SDS011;647;48.840;9.314;2022-07-05T09:59:29;58.10;;;2.50;;
1308;SDS011;647;48.840;9.314;2022-07-05T10:01:57;58.50;;;2.50;;
1308;SDS011;647;48.840;9.314;2022-07-05T10:04:25;58.23;;;2.70;;
1308;SDS011;647;48.840;9.314;2022-07-05T10:06:53;60.90;;;2.77;;
1308;SDS011;647;48.840;9.314;2022-07-05T10:12:27;58.67;;;2.47;;
1308;SDS011;647;48.840;9.314;2022-07-05T10:14:57;58.47;;;2.53;;
1308;SDS011;647;48.840;9.314;2022-07-05T10:17:27;58.30;;;2.50;;
1308;SDS011;647;48.840;9.314;2022-07-05T10:19:56;58.67;;;2.30;;
1308;SDS011;647;48.840;9.314;2022-07-05T10:22:24;59.27;;;2.30;;
1308;SDS011;647;48.840;9.314;2022-07-05T10:24:54;58.30;;;2.40;;
1308;SDS011;647;48.840;9.314;2022-07-05T10:27:37;60.00;;;2.40;;
1308;SDS011;647;48.840;9.314;2022-07-05T10:30:07;58.77;;;2.30;;
1308;SDS011;647;48.840;9.314;2022-07-05T10:32:39;57.40;;;2.00;;
1308;SDS011;647;48.840;9.314;2022-07-05T10:35:47;57.20;;;2.07;;
1308;SDS011;647;48.840;9.314;2022-07-05T10:38:22;57.40;;;2.10;;
1308;SDS011;647;48.840;9.314;2022-07-05T10:40:52;56.97;;;1.70;;
1308;SDS011;647;48.840;9.314;2022-07-05T10:43:29;58.77;;;1.93;;
1308;SDS011;647;48.840;9.314;2022-07-05T10:45:59;57.13;;;1.90;;
1308;SDS011;647;48.840;9.314;2022-07-05T10:48:28;56.67;;;1.80;;
1308;SDS011;647;48.840;9.314;2022-07-05T10:50:59;56.77;;;1.90;;
1308;SDS011;647;48.840;9.314;2022-07-05T10:56:17;57.50;;;2.10;;
1308;SDS011;647;48.840;9.314;2022-07-05T10:58:47;57.00;;;1.87;;
1308;SDS011;647;48.840;9.314;2022-07-05T11:01:34;56.47;;;1.77;;
1308;SDS011;647;48.840;9.314;2022-07-05T11:04:17;56.47;;;1.90;;
1308;SDS011;647;48.840;9.314;2022-07-05T11:07:08;57.10;;;2.40;;
1308;SDS011;647;48.840;9.314;2022-07-05T11:09:35;56.57;;;2.17;;
1308;SDS011;647;48.840;9.314;2022-07-05T11:12:06;56.27;;;1.80;;
1308;SDS011;647;48.840;9.314;2022-07-05T11:14:35;56.97;;;1.90;;
1308;SDS011;647;48.840;9.314;2022-07-05T11:17:10;57.40;;;2.43;;
1308;SDS011;647;48.840;9.314;2022-07-05T11:25:50;58.00;;;2.00;;
1308;SDS011;647;48.840;9.314;2022-07-05T11:28:22;57.40;;;2.17;;
1308;SDS011;647;48.840;9.314;2022-07-05T11:31:07;57.83;;;2.23;;
1308;SDS011;647;48.840;9.314;2022-07-05T11:33:36;56.77;;;2.00;;
1308;SDS011;647;48.840;9.314;2022-07-05T11:36:04;56.67;;;1.80;;
1308;SDS011;647;48.840;9.314;2022-07-05T11:38:42;56.87;;;2.10;;
1308;SDS011;647;48.840;9.314;2022-07-05T11:44:26;56.70;;;2.23;;
1308;SDS011;647;48.840;9.314;2022-07-05T11:47:01;57.50;;;2.10;;
1308;SDS011;647;48.840;9.314;2022-07-05T11:49:38;56.57;;;2.03;;
1308;SDS011;647;48.840;9.314;2022-07-05T11:52:24;56.90;;;2.10;;
1308;SDS011;647;48.840;9.314;2022-07-05T11:54:56;57.83;;;2.13;;
1308;SDS011;647;48.840;9.314;2022-07-05T11:57:27;57.27;;;2.40;;
1308;SDS011;647;48.840;9.314;2022-07-05T12:00:24;56.37;;;2.10;;
1308;SDS011;647;48.840;9.314;2022-07-05T12:02:57;56.67;;;1.97;;
1308;SDS011;647;48.840;9.314;2022-07-05T12:05:29;56.90;;;2.23;;
1308;SDS011;647;48.840;9.314;2022-07-05T12:08:03;56.70;;;2.10;;
1308;SDS011;647;48.840;9.314;2022-07-05T12:10:34;56.20;;;1.90;;
1308;SDS011;647;48.840;9.314;2022-07-05T12:13:22;56.40;;;2.33;;
1308;SDS011;647;48.840;9.314;2022-07-05T12:15:58;56.60;;;2.30;;
1308;SDS011;647;48.840;9.314;2022-07-05T12:18:27;56.80;;;2.07;;
1308;SDS011;647;48.840;9.314;2022-07-05T12:20:59;56.53;;;1.97;;
1308;SDS011;647;48.840;9.314;2022-07-05T12:23:53;56.93;;;2.10;;
1308;SDS011;647;48.840;9.314;2022-07-05T12:26:24;56.30;;;1.80;;
1308;SDS011;647;48.840;9.314;2022-07-05T12:28:59;56.50;;;2.00;;
1308;SDS011;647;48.840;9.314;2022-07-05T12:31:42;57.03;;;1.90;;
1308;SDS011;647;48.840;9.314;2022-07-05T12:40:36;56.80;;;2.00;;
1308;SDS011;647;48.840;9.314;2022-07-05T12:43:09;56.37;;;2.00;;
1308;SDS011;647;48.840;9.314;2022-07-05T12:45:39;58.17;;;2.70;;
1308;SDS011;647;48.840;9.314;2022-07-05T12:51:08;56.50;;;2.00;;
1308;SDS011;647;48.840;9.314;2022-07-05T12:53:43;57.17;;;2.67;;
1308;SDS011;647;48.840;9.314;2022-07-05T12:56:29;56.70;;;2.00;;
1308;SDS011;647;48.840;9.314;2022-07-05T12:59:13;57.97;;;2.20;;
1308;SDS011;647;48.840;9.314;2022-07-05T13:01:44;58.70;;;2.30;;
1308;SDS011;647;48.840;9.314;2022-07-05T13:04:12;58.07;;;2.23;;
1308;SDS011;647;48.840;9.314;2022-07-05T13:06:43;56.67;;;2.13;;
1308;SDS011;647;48.840;9.314;2022-07-05T13:09:13;57.10;;;2.20;;
1308;SDS011;647;48.840;9.314;2022-07-05T13:11:45;56.90;;;2.00;;
1308;SDS011;647;48.840;9.314;2022-07-05T13:14:14;56.63;;;2.20;;
1308;SDS011;647;48.840;9.314;2022-07-05T13:16:47;56.57;;;2.00;;
1308;SDS011;647;48.840;9.314;2022-07-05T13:19:17;57.00;;;2.03;;
1308;SDS011;647;48.840;9.314;2022-07-05T13:21:55;56.47;;;1.83;;
1308;SDS011;647;48.840;9.314;2022-07-05T13:24:22;56.40;;;1.70;;
1308;SDS011;647;48.840;9.314;2022-07-05T13:29:55;58.80;;;2.30;;
1308;SDS011;647;48.840;9.314;2022-07-05T13:32:22;57.10;;;2.00;;
1308;SDS011;647;48.840;9.314;2022-07-05T13:34:53;56.77;;;2.20;;
1308;SDS011;647;48.840;9.314;2022-07-05T13:37:21;58.43;;;2.10;;
1308;SDS011;647;48.840;9.314;2022-07-05T13:39:50;56.60;;;2.10;;
1308;SDS011;647;48.840;9.314;2022-07-05T13:42:17;56.80;;;2.13;;
1308;SDS011;647;48.840;9.314;2022-07-05T13:44:45;56.60;;;2.10;;
1308;SDS011;647;48.840;9.314;2022-07-05T13:47:12;56.80;;;1.97;;
1308;SDS011;647;48.840;9.314;2022-07-05T13:49:39;56.80;;;1.83;;
1308;SDS011;647;48.840;9.314;2022-07-05T13:52:07;56.77;;;2.20;;
1308;SDS011;647;48.840;9.314;2022-07-05T13:54:36;57.93;;;2.30;;
1308;SDS011;647;48.840;9.314;2022-07-05T13:57:04;56.80;;;2.30;;
1308;SDS011;647;48.840;9.314;2022-07-05T13:59:31;57.10;;;2.03;;
1308;SDS011;647;48.840;9.314;2022-07-05T14:01:58;56.60;;;2.00;;
1308;SDS011;647;48.840;9.314;2022-07-05T14:04:26;57.33;;;2.37;;
1308;SDS011;647;48.840;9.314;2022-07-05T14:06:55;56.90;;;2.57;;
1308;SDS011;647;48.840;9.314;2022-07-05T14:09:22;57.17;;;2.30;;
1308;SDS011;647;48.840;9.314;2022-07-05T14:11:52;58.17;;;2.17;;
1308;SDS011;647;48.840;9.314;2022-07-05T14:14:20;56.43;;;2.10;;
1308;SDS011;647;48.840;9.314;2022-07-05T14:16:48;56.50;;;2.20;;
1308;SDS011;647;48.840;9.314;2022-07-05T14:19:16;56.50;;;1.73;;
1308;SDS011;647;48.840;9.314;2022-07-05T14:21:43;56.70;;;2.00;;
1308;SDS011;647;48.840;9.314;2022-07-05T14:24:12;57.80;;;1.93;;
1308;SDS011;647;48.840;9.314;2022-07-05T14:26:39;56.93;;;2.00;;
1308;SDS011;647;48.840;9.314;2022-07-05T14:29:10;57.10;;;2.07;;
1308;SDS011;647;48.840;9.314;2022-07-05T14:31:41;56.60;;;2.20;;
1308;SDS011;647;48.840;9.314;2022-07-05T14:34:08;59.13;;;2.03;;
1308;SDS011;647;48.840;9.314;2022-07-05T14:36:35;57.00;;;2.30;;
1308;SDS011;647;48.840;9.314;2022-07-05T14:39:03;56.83;;;2.07;;
1308;SDS011;647;48.840;9.314;2022-07-05T14:41:32;56.70;;;2.23;;
1308;SDS011;647;48.840;9.314;2022-07-05T14:43:59;56.40;;;2.17;;
1308;SDS011;647;48.840;9.314;2022-07-05T14:46:28;57.20;;;2.23;;
1308;SDS011;647;48.840;9.314;2022-07-05T14:48:55;56.67;;;2.10;;
1308;SDS011;647;48.840;9.314;2022-07-05T14:51:24;56.73;;;2.13;;
1308;SDS011;647;48.840;9.314;2022-07-05T14:53:58;57.37;;;2.40;;
1308;SDS011;647;48.840;9.314;2022-07-05T14:56:26;57.67;;;2.10;;
1308;SDS011;647;48.840;9.314;2022-07-05T14:58:53;57.03;;;1.80;;
1308;SDS011;647;48.840;9.314;2022-07-05T15:01:20;56.70;;;2.00;;
1308;SDS011;647;48.840;9.314;2022-07-05T15:03:50;56.77;;;2.23;;
1308;SDS011;647;48.840;9.314;2022-07-05T15:06:17;56.87;;;2.60;;
1308;SDS011;647;48.840;9.314;2022-07-05T15:08:46;57.00;;;2.53;;
1308;SDS011;647;48.840;9.314;2022-07-05T15:11:14;57.67;;;2.20;;
1308;SDS011;647;48.840;9.314;2022-07-05T15:13:42;56.90;;;2.20;;
1308;SDS011;647;48.840;9.314;2022-07-05T15:16:10;57.20;;;2.37;;
1308;SDS011;647;48.840;9.314;2022-07-05T15:18:37;56.90;;;2.20;;
1308;SDS011;647;48.840;9.314;2022-07-05T15:21:08;57.03;;;2.20;;
1308;SDS011;647;48.840;9.314;2022-07-05T15:23:35;56.90;;;2.10;;
1308;SDS011;647;48.840;9.314;2022-07-05T15:26:04;57.37;;;2.13;;
1308;SDS011;647;48.840;9.314;2022-07-05T15:28:31;57.30;;;2.30;;
1308;SDS011;647;48.840;9.314;2022-07-05T15:30:59;57.03;;;1.90;;
1308;SDS011;647;48.840;9.314;2022-07-05T15:33:26;57.40;;;2.30;;
1308;SDS011;647;48.840;9.314;2022-07-05T15:35:55;56.80;;;2.03;;
1308;SDS011;647;48.840;9.314;2022-07-05T15:38:27;57.07;;;2.23;;
1308;SDS011;647;48.840;9.314;2022-07-05T15:40:56;57.13;;;2.37;;
1308;SDS011;647;48.840;9.314;2022-07-05T15:43:23;56.90;;;2.20;;
1308;SDS011;647;48.840;9.314;2022-07-05T15:45:53;57.80;;;2.40;;
1308;SDS011;647;48.840;9.314;2022-07-05T15:48:20;57.10;;;2.10;;
1308;SDS011;647;48.840;9.314;2022-07-05T15:50:49;57.40;;;2.30;;
1308;SDS011;647;48.840;9.314;2022-07-05T15:53:18;58.43;;;2.60;;
1308;SDS011;647;48.840;9.314;2022-07-05T15:55:47;57.57;;;2.30;;
1308;SDS011;647;48.840;9.314;2022-07-05T15:58:16;57.17;;;2.30;;
1308;SDS011;647;48.840;9.314;2022-07-05T16:00:46;58.30;;;2.40;;